sensor_id;sensor_type;location;lat;lon;timestamp;temperature;humidity
58469;DHT22;44257;44.804;10.220;2022-09-27T00:02:05;15.00;99.90
58469;DHT22;44257;44.804;10.220;2022-09-27T00:04:31;15.10;99.90
58469;DHT22;44257;44.804;10.220;2022-09-27T00:06:56;15.10;99.90
58469;DHT22;44257;44.804;10.220;2022-09-27T00:09:22;15.10;99.90
58469;DHT22;44257;44.804;10.220;2022-09-27T00:11:48;15.10;99.90
58469;DHT22;44257;44.804;10.220;2022-09-27T00:14:15;15.20;99.90
58469;DHT22;44257;44.804;10.220;2022-09-27T00:16:42;15.30;99.90
58469;DHT22;44257;44.804;10.220;2022-09-27T00:19:14;15.40;99.90
58469;DHT22;44257;44.804;10.220;2022-09-27T00:21:40;15.50;99.90
58469;DHT22;44257;44.804;10.220;2022-09-27T00:24:13;15.60;99.90
58469;DHT22;44257;44.804;10.220;2022-09-27T00:26:40;15.70;99.90
58469;DHT22;44257;44.804;10.220;2022-09-27T00:29:06;15.70;99.90
58469;DHT22;44257;44.804;10.220;2022-09-27T00:31:33;15.80;99.90
58469;DHT22;44257;44.804;10.220;2022-09-27T00:34:00;15.80;99.90
58469;DHT22;44257;44.804;10.220;2022-09-27T00:36:27;15.90;99.90
58469;DHT22;44257;44.804;10.220;2022-09-27T00:38:54;15.90;99.90
58469;DHT22;44257;44.804;10.220;2022-09-27T00:41:25;16.00;99.90
58469;DHT22;44257;44.804;10.220;2022-09-27T00:44:00;16.00;99.90
58469;DHT22;44257;44.804;10.220;2022-09-27T00:46:43;16.10;99.90
58469;DHT22;44257;44.804;10.220;2022-09-27T00:49:22;16.20;99.90
58469;DHT22;44257;44.804;10.220;2022-09-27T00:51:56;16.20;99.90
58469;DHT22;44257;44.804;10.220;2022-09-27T00:54:25;16.20;99.90
58469;DHT22;44257;44.804;10.220;2022-09-27T00:56:53;16.30;99.90
58469;DHT22;44257;44.804;10.220;2022-09-27T00:59:26;16.30;99.90
58469;DHT22;44257;44.804;10.220;2022-09-27T01:01:54;16.30;99.90
58469;DHT22;44257;44.804;10.220;2022-09-27T01:04:21;16.20;99.90
58469;DHT22;44257;44.804;10.220;2022-09-27T01:06:49;16.20;99.90
58469;DHT22;44257;44.804;10.220;2022-09-27T01:09:16;16.30;99.90
58469;DHT22;44257;44.804;10.220;2022-09-27T01:28:34;15.90;99.90
58469;DHT22;44257;44.804;10.220;2022-09-27T01:31:08;15.70;99.90
58469;DHT22;44257;44.804;10.220;2022-09-27T01:36:33;15.40;99.90
58469;DHT22;44257;44.804;10.220;2022-09-27T01:42:32;15.20;99.90
58469;DHT22;44257;44.804;10.220;2022-09-27T01:45:16;15.10;99.90
58469;DHT22;44257;44.804;10.220;2022-09-27T01:48:06;15.00;99.90
58469;DHT22;44257;44.804;10.220;2022-09-27T01:50:58;14.90;99.90
58469;DHT22;44257;44.804;10.220;2022-09-27T01:53:36;14.70;99.90
58469;DHT22;44257;44.804;10.220;2022-09-27T02:01:34;14.30;99.90
58469;DHT22;44257;44.804;10.220;2022-09-27T02:04:02;14.30;99.90
58469;DHT22;44257;44.804;10.220;2022-09-27T02:07:04;14.20;99.90
58469;DHT22;44257;44.804;10.220;2022-09-27T02:09:53;14.10;99.90
58469;DHT22;44257;44.804;10.220;2022-09-27T02:12:30;14.10;99.90
58469;DHT22;44257;44.804;10.220;2022-09-27T02:14:59;14.10;99.90
58469;DHT22;44257;44.804;10.220;2022-09-27T02:17:43;14.00;99.90
58469;DHT22;44257;44.804;10.220;2022-09-27T02:20:28;14.10;99.90
58469;DHT22;44257;44.804;10.220;2022-09-27T02:25:40;14.10;99.90
58469;DHT22;44257;44.804;10.220;2022-09-27T02:28:35;14.20;99.90
58469;DHT22;44257;44.804;10.220;2022-09-27T02:31:03;14.30;99.90
58469;DHT22;44257;44.804;10.220;2022-09-27T02:33:53;14.40;99.90
58469;DHT22;44257;44.804;10.220;2022-09-27T02:36:20;14.50;99.90
58469;DHT22;44257;44.804;10.220;2022-09-27T02:38:47;14.60;99.90
58469;DHT22;44257;44.804;10.220;2022-09-27T02:41:20;14.60;99.90
58469;DHT22;44257;44.804;10.220;2022-09-27T02:43:53;14.60;99.90
58469;DHT22;44257;44.804;10.220;2022-09-27T02:52:17;14.50;99.90
58469;DHT22;44257;44.804;10.220;2022-09-27T02:54:59;14.40;99.90
58469;DHT22;44257;44.804;10.220;2022-09-27T03:04:26;14.00;99.90
58469;DHT22;44257;44.804;10.220;2022-09-27T03:06:54;13.90;99.90
58469;DHT22;44257;44.804;10.220;2022-09-27T03:09:27;13.80;99.90
58469;DHT22;44257;44.804;10.220;2022-09-27T03:11:53;13.70;99.90
58469;DHT22;44257;44.804;10.220;2022-09-27T03:14:19;13.70;99.90
58469;DHT22;44257;44.804;10.220;2022-09-27T03:16:56;13.60;99.90
58469;DHT22;44257;44.804;10.220;2022-09-27T03:19:41;13.60;99.90
58469;DHT22;44257;44.804;10.220;2022-09-27T03:22:33;13.70;99.90
58469;DHT22;44257;44.804;10.220;2022-09-27T03:24:59;13.80;99.90
58469;DHT22;44257;44.804;10.220;2022-09-27T03:27:25;13.90;99.90
58469;DHT22;44257;44.804;10.220;2022-09-27T03:29:51;13.90;99.90
58469;DHT22;44257;44.804;10.220;2022-09-27T03:32:17;13.90;99.90
58469;DHT22;44257;44.804;10.220;2022-09-27T03:35:06;13.80;99.90
58469;DHT22;44257;44.804;10.220;2022-09-27T03:37:32;13.70;99.90
58469;DHT22;44257;44.804;10.220;2022-09-27T03:39:58;13.60;99.90
58469;DHT22;44257;44.804;10.220;2022-09-27T03:42:24;13.40;99.90
58469;DHT22;44257;44.804;10.220;2022-09-27T03:44:51;13.30;99.90
58469;DHT22;44257;44.804;10.220;2022-09-27T03:47:17;13.20;99.90
58469;DHT22;44257;44.804;10.220;2022-09-27T03:49:46;13.10;99.90
58469;DHT22;44257;44.804;10.220;2022-09-27T03:52:13;13.00;99.90
58469;DHT22;44257;44.804;10.220;2022-09-27T03:54:39;13.00;99.90
58469;DHT22;44257;44.804;10.220;2022-09-27T03:57:05;12.90;99.90
58469;DHT22;44257;44.804;10.220;2022-09-27T03:59:32;12.90;99.90
58469;DHT22;44257;44.804;10.220;2022-09-27T04:02:30;12.90;99.90
58469;DHT22;44257;44.804;10.220;2022-09-27T04:05:15;12.80;99.90
58469;DHT22;44257;44.804;10.220;2022-09-27T04:07:50;12.70;99.90
58469;DHT22;44257;44.804;10.220;2022-09-27T04:10:17;12.70;99.90
58469;DHT22;44257;44.804;10.220;2022-09-27T04:12:43;12.60;99.90
58469;DHT22;44257;44.804;10.220;2022-09-27T04:15:10;12.50;99.90
58469;DHT22;44257;44.804;10.220;2022-09-27T04:17:49;12.50;99.90
58469;DHT22;44257;44.804;10.220;2022-09-27T04:20:26;12.40;99.90
58469;DHT22;44257;44.804;10.220;2022-09-27T04:22:52;12.40;99.90
58469;DHT22;44257;44.804;10.220;2022-09-27T04:25:19;12.30;99.90
58469;DHT22;44257;44.804;10.220;2022-09-27T04:27:48;12.30;99.90
58469;DHT22;44257;44.804;10.220;2022-09-27T04:30:17;12.20;99.90
58469;DHT22;44257;44.804;10.220;2022-09-27T04:33:05;12.20;99.90
58469;DHT22;44257;44.804;10.220;2022-09-27T04:35:54;12.20;99.90
58469;DHT22;44257;44.804;10.220;2022-09-27T04:38:57;12.20;99.90
58469;DHT22;44257;44.804;10.220;2022-09-27T04:41:24;12.20;99.90
58469;DHT22;44257;44.804;10.220;2022-09-27T04:43:51;12.20;99.90
58469;DHT22;44257;44.804;10.220;2022-09-27T04:46:17;12.20;99.90
58469;DHT22;44257;44.804;10.220;2022-09-27T04:48:44;12.20;99.90
58469;DHT22;44257;44.804;10.220;2022-09-27T04:51:10;12.20;99.90
58469;DHT22;44257;44.804;10.220;2022-09-27T04:53:36;12.10;99.90
58469;DHT22;44257;44.804;10.220;2022-09-27T04:56:02;12.10;99.90
58469;DHT22;44257;44.804;10.220;2022-09-27T04:58:32;12.10;99.90
58469;DHT22;44257;44.804;10.220;2022-09-27T05:00:59;12.10;99.90
58469;DHT22;44257;44.804;10.220;2022-09-27T05:03:46;12.10;99.90
58469;DHT22;44257;44.804;10.220;2022-09-27T05:06:13;12.10;99.90
58469;DHT22;44257;44.804;10.220;2022-09-27T05:08:40;12.10;99.90
58469;DHT22;44257;44.804;10.220;2022-09-27T05:11:19;12.10;99.90
58469;DHT22;44257;44.804;10.220;2022-09-27T05:14:04;12.10;99.90
58469;DHT22;44257;44.804;10.220;2022-09-27T05:16:36;12.00;99.90
58469;DHT22;44257;44.804;10.220;2022-09-27T05:19:20;12.00;99.90
58469;DHT22;44257;44.804;10.220;2022-09-27T05:22:06;11.90;99.90
58469;DHT22;44257;44.804;10.220;2022-09-27T05:24:32;11.90;99.90
58469;DHT22;44257;44.804;10.220;2022-09-27T05:27:00;11.90;99.90
58469;DHT22;44257;44.804;10.220;2022-09-27T05:29:26;11.90;99.90
58469;DHT22;44257;44.804;10.220;2022-09-27T05:32:04;11.90;99.90
58469;DHT22;44257;44.804;10.220;2022-09-27T05:34:30;11.90;99.90
58469;DHT22;44257;44.804;10.220;2022-09-27T05:36:57;11.90;99.90
58469;DHT22;44257;44.804;10.220;2022-09-27T05:39:24;11.90;99.90
58469;DHT22;44257;44.804;10.220;2022-09-27T05:41:49;11.90;99.90
58469;DHT22;44257;44.804;10.220;2022-09-27T05:44:16;11.90;99.90
58469;DHT22;44257;44.804;10.220;2022-09-27T05:46:52;12.00;99.90
58469;DHT22;44257;44.804;10.220;2022-09-27T05:49:18;12.10;99.90
58469;DHT22;44257;44.804;10.220;2022-09-27T05:51:45;12.10;99.90
58469;DHT22;44257;44.804;10.220;2022-09-27T05:54:12;12.30;99.90
58469;DHT22;44257;44.804;10.220;2022-09-27T05:56:38;12.40;99.90
58469;DHT22;44257;44.804;10.220;2022-09-27T05:59:25;12.50;99.90
58469;DHT22;44257;44.804;10.220;2022-09-27T06:02:25;12.70;99.90
58469;DHT22;44257;44.804;10.220;2022-09-27T06:05:11;12.90;99.90
58469;DHT22;44257;44.804;10.220;2022-09-27T06:07:39;13.20;99.90
58469;DHT22;44257;44.804;10.220;2022-09-27T06:10:10;13.40;99.90
58469;DHT22;44257;44.804;10.220;2022-09-27T06:12:36;13.70;99.90
58469;DHT22;44257;44.804;10.220;2022-09-27T06:15:07;13.80;99.90
58469;DHT22;44257;44.804;10.220;2022-09-27T06:17:37;14.00;99.90
58469;DHT22;44257;44.804;10.220;2022-09-27T06:20:10;14.20;99.90
58469;DHT22;44257;44.804;10.220;2022-09-27T06:22:36;14.30;99.90
58469;DHT22;44257;44.804;10.220;2022-09-27T06:25:03;14.30;99.90
58469;DHT22;44257;44.804;10.220;2022-09-27T06:27:32;14.40;99.90
58469;DHT22;44257;44.804;10.220;2022-09-27T06:30:05;14.50;99.90
58469;DHT22;44257;44.804;10.220;2022-09-27T06:32:43;14.50;99.90
58469;DHT22;44257;44.804;10.220;2022-09-27T06:35:18;14.60;99.90
58469;DHT22;44257;44.804;10.220;2022-09-27T06:37:44;14.70;99.90
58469;DHT22;44257;44.804;10.220;2022-09-27T06:40:10;14.80;99.90
58469;DHT22;44257;44.804;10.220;2022-09-27T06:43:09;15.00;99.90
58469;DHT22;44257;44.804;10.220;2022-09-27T06:46:02;15.10;99.90
58469;DHT22;44257;44.804;10.220;2022-09-27T06:48:49;15.10;99.90
58469;DHT22;44257;44.804;10.220;2022-09-27T06:51:17;15.20;99.90
58469;DHT22;44257;44.804;10.220;2022-09-27T06:53:44;15.30;99.90
58469;DHT22;44257;44.804;10.220;2022-09-27T06:56:10;15.40;99.90
58469;DHT22;44257;44.804;10.220;2022-09-27T06:58:46;15.40;99.90
58469;DHT22;44257;44.804;10.220;2022-09-27T07:01:43;15.50;99.90
58469;DHT22;44257;44.804;10.220;2022-09-27T07:04:27;15.60;99.90
58469;DHT22;44257;44.804;10.220;2022-09-27T07:07:23;15.60;99.90
58469;DHT22;44257;44.804;10.220;2022-09-27T07:09:49;15.80;99.90
58469;DHT22;44257;44.804;10.220;2022-09-27T07:12:14;15.90;99.90
58469;DHT22;44257;44.804;10.220;2022-09-27T07:14:41;16.00;99.90
58469;DHT22;44257;44.804;10.220;2022-09-27T07:17:11;16.10;99.90
58469;DHT22;44257;44.804;10.220;2022-09-27T07:19:42;16.20;99.90
58469;DHT22;44257;44.804;10.220;2022-09-27T07:22:08;16.30;99.90
58469;DHT22;44257;44.804;10.220;2022-09-27T07:24:35;16.20;99.90
58469;DHT22;44257;44.804;10.220;2022-09-27T07:27:01;16.20;99.90
58469;DHT22;44257;44.804;10.220;2022-09-27T07:29:27;16.20;99.90
58469;DHT22;44257;44.804;10.220;2022-09-27T07:31:53;16.30;99.90
58469;DHT22;44257;44.804;10.220;2022-09-27T07:34:18;16.40;99.90
58469;DHT22;44257;44.804;10.220;2022-09-27T07:36:45;16.40;99.90
58469;DHT22;44257;44.804;10.220;2022-09-27T07:39:11;16.50;99.90
58469;DHT22;44257;44.804;10.220;2022-09-27T07:41:37;16.60;99.90
58469;DHT22;44257;44.804;10.220;2022-09-27T07:44:05;16.80;99.90
58469;DHT22;44257;44.804;10.220;2022-09-27T07:46:39;17.10;99.90
58469;DHT22;44257;44.804;10.220;2022-09-27T07:49:09;17.20;99.90
58469;DHT22;44257;44.804;10.220;2022-09-27T07:51:49;17.40;99.90
58469;DHT22;44257;44.804;10.220;2022-09-27T07:54:34;17.40;99.90
58469;DHT22;44257;44.804;10.220;2022-09-27T07:57:21;17.50;99.90
58469;DHT22;44257;44.804;10.220;2022-09-27T07:59:50;17.70;99.90
58469;DHT22;44257;44.804;10.220;2022-09-27T08:02:18;17.90;99.90
58469;DHT22;44257;44.804;10.220;2022-09-27T08:04:45;18.00;99.90
58469;DHT22;44257;44.804;10.220;2022-09-27T08:07:14;18.00;99.90
58469;DHT22;44257;44.804;10.220;2022-09-27T08:09:41;18.00;99.90
58469;DHT22;44257;44.804;10.220;2022-09-27T08:12:07;18.00;99.90
58469;DHT22;44257;44.804;10.220;2022-09-27T08:14:33;18.10;99.90
58469;DHT22;44257;44.804;10.220;2022-09-27T08:16:59;18.40;99.90
58469;DHT22;44257;44.804;10.220;2022-09-27T08:19:27;18.60;99.90
58469;DHT22;44257;44.804;10.220;2022-09-27T08:22:00;18.60;99.90
58469;DHT22;44257;44.804;10.220;2022-09-27T08:24:47;18.60;99.90
58469;DHT22;44257;44.804;10.220;2022-09-27T08:27:21;18.70;99.90
58469;DHT22;44257;44.804;10.220;2022-09-27T08:29:52;18.70;99.90
58469;DHT22;44257;44.804;10.220;2022-09-27T08:32:18;18.90;99.90
58469;DHT22;44257;44.804;10.220;2022-09-27T08:34:44;19.00;99.90
58469;DHT22;44257;44.804;10.220;2022-09-27T08:37:09;19.10;99.90
58469;DHT22;44257;44.804;10.220;2022-09-27T08:39:37;19.00;99.90
58469;DHT22;44257;44.804;10.220;2022-09-27T08:42:25;19.00;99.90
58469;DHT22;44257;44.804;10.220;2022-09-27T08:47:45;19.20;99.90
58469;DHT22;44257;44.804;10.220;2022-09-27T08:52:50;19.50;99.90
58469;DHT22;44257;44.804;10.220;2022-09-27T08:55:46;19.50;99.90
58469;DHT22;44257;44.804;10.220;2022-09-27T09:01:01;19.70;99.90
58469;DHT22;44257;44.804;10.220;2022-09-27T09:03:47;19.80;99.90
58469;DHT22;44257;44.804;10.220;2022-09-27T09:11:47;20.20;99.90
58469;DHT22;44257;44.804;10.220;2022-09-27T09:14:45;20.10;99.90
58469;DHT22;44257;44.804;10.220;2022-09-27T09:17:39;20.10;99.90
58469;DHT22;44257;44.804;10.220;2022-09-27T09:34:02;20.60;99.90
58469;DHT22;44257;44.804;10.220;2022-09-27T09:36:41;20.70;99.90
58469;DHT22;44257;44.804;10.220;2022-09-27T09:39:17;20.90;99.90
58469;DHT22;44257;44.804;10.220;2022-09-27T09:47:23;20.80;99.90
58469;DHT22;44257;44.804;10.220;2022-09-27T09:49:56;20.70;99.90
58469;DHT22;44257;44.804;10.220;2022-09-27T09:52:40;20.80;99.90
58469;DHT22;44257;44.804;10.220;2022-09-27T09:55:27;20.90;99.90
58469;DHT22;44257;44.804;10.220;2022-09-27T09:58:04;20.90;99.90
58469;DHT22;44257;44.804;10.220;2022-09-27T10:00:42;20.90;99.90
58469;DHT22;44257;44.804;10.220;2022-09-27T10:03:09;21.00;99.90
58469;DHT22;44257;44.804;10.220;2022-09-27T10:05:35;21.10;99.90
58469;DHT22;44257;44.804;10.220;2022-09-27T10:08:06;21.10;99.90
58469;DHT22;44257;44.804;10.220;2022-09-27T10:10:35;21.10;99.90
58469;DHT22;44257;44.804;10.220;2022-09-27T10:13:33;21.20;99.90
58469;DHT22;44257;44.804;10.220;2022-09-27T10:16:07;21.50;99.90
58469;DHT22;44257;44.804;10.220;2022-09-27T10:18:37;21.80;99.90
58469;DHT22;44257;44.804;10.220;2022-09-27T10:21:23;21.90;99.90
58469;DHT22;44257;44.804;10.220;2022-09-27T10:26:47;21.80;99.90
58469;DHT22;44257;44.804;10.220;2022-09-27T10:31:45;22.10;99.90
58469;DHT22;44257;44.804;10.220;2022-09-27T10:34:37;22.20;99.90
58469;DHT22;44257;44.804;10.220;2022-09-27T10:37:13;22.40;99.90
58469;DHT22;44257;44.804;10.220;2022-09-27T10:39:53;22.30;99.90
58469;DHT22;44257;44.804;10.220;2022-09-27T10:44:52;22.20;99.90
58469;DHT22;44257;44.804;10.220;2022-09-27T10:47:38;22.20;99.90
58469;DHT22;44257;44.804;10.220;2022-09-27T10:50:22;22.20;99.90
58469;DHT22;44257;44.804;10.220;2022-09-27T10:53:14;22.30;99.90
58469;DHT22;44257;44.804;10.220;2022-09-27T10:55:46;22.40;99.90
58469;DHT22;44257;44.804;10.220;2022-09-27T10:58:19;22.50;99.90
58469;DHT22;44257;44.804;10.220;2022-09-27T11:01:00;22.50;99.90
58469;DHT22;44257;44.804;10.220;2022-09-27T11:03:32;22.60;99.90
58469;DHT22;44257;44.804;10.220;2022-09-27T11:05:58;22.70;99.90
58469;DHT22;44257;44.804;10.220;2022-09-27T11:08:32;22.80;99.90
58469;DHT22;44257;44.804;10.220;2022-09-27T11:25:37;22.80;99.90
58469;DHT22;44257;44.804;10.220;2022-09-27T11:31:00;22.90;99.90
58469;DHT22;44257;44.804;10.220;2022-09-27T11:39:28;23.10;98.60
58469;DHT22;44257;44.804;10.220;2022-09-27T11:45:12;23.10;99.30
58469;DHT22;44257;44.804;10.220;2022-09-27T11:53:09;23.20;98.80
58469;DHT22;44257;44.804;10.220;2022-09-27T11:55:42;23.30;99.20
58469;DHT22;44257;44.804;10.220;2022-09-27T12:01:01;23.70;98.80
58469;DHT22;44257;44.804;10.220;2022-09-27T12:06:53;24.50;97.20
58469;DHT22;44257;44.804;10.220;2022-09-27T12:09:29;24.80;96.40
58469;DHT22;44257;44.804;10.220;2022-09-27T12:12:05;24.80;96.10
58469;DHT22;44257;44.804;10.220;2022-09-27T12:17:21;24.60;95.10
58469;DHT22;44257;44.804;10.220;2022-09-27T12:19:59;24.20;95.60
58469;DHT22;44257;44.804;10.220;2022-09-27T12:22:52;24.10;95.60
58469;DHT22;44257;44.804;10.220;2022-09-27T12:25:25;24.10;96.00
58469;DHT22;44257;44.804;10.220;2022-09-27T12:28:20;24.20;96.30
58469;DHT22;44257;44.804;10.220;2022-09-27T12:30:54;24.40;96.40
58469;DHT22;44257;44.804;10.220;2022-09-27T12:33:28;24.60;96.70
58469;DHT22;44257;44.804;10.220;2022-09-27T12:36:02;24.60;94.60
58469;DHT22;44257;44.804;10.220;2022-09-27T12:39:04;24.60;94.60
58469;DHT22;44257;44.804;10.220;2022-09-27T12:41:38;24.60;94.60
58469;DHT22;44257;44.804;10.220;2022-09-27T12:44:27;24.60;94.70
58469;DHT22;44257;44.804;10.220;2022-09-27T12:47:05;24.70;94.50
58469;DHT22;44257;44.804;10.220;2022-09-27T12:52:36;24.50;92.50
58469;DHT22;44257;44.804;10.220;2022-09-27T13:00:21;24.20;93.40
58469;DHT22;44257;44.804;10.220;2022-09-27T13:06:19;24.30;95.20
58469;DHT22;44257;44.804;10.220;2022-09-27T13:14:25;24.80;94.80
58469;DHT22;44257;44.804;10.220;2022-09-27T13:16:52;25.00;94.80
58469;DHT22;44257;44.804;10.220;2022-09-27T13:19:39;25.30;94.30
58469;DHT22;44257;44.804;10.220;2022-09-27T13:25:45;25.30;93.30
58469;DHT22;44257;44.804;10.220;2022-09-27T13:31:14;25.50;93.40
58469;DHT22;44257;44.804;10.220;2022-09-27T13:33:50;25.50;92.30
58469;DHT22;44257;44.804;10.220;2022-09-27T13:39:05;25.40;92.20
58469;DHT22;44257;44.804;10.220;2022-09-27T13:42:12;25.40;92.20
58469;DHT22;44257;44.804;10.220;2022-09-27T13:47:44;25.60;92.20
58469;DHT22;44257;44.804;10.220;2022-09-27T13:50:34;25.60;92.70
58469;DHT22;44257;44.804;10.220;2022-09-27T13:53:27;25.60;92.90
58469;DHT22;44257;44.804;10.220;2022-09-27T13:55:55;25.60;93.10
58469;DHT22;44257;44.804;10.220;2022-09-27T13:58:54;25.60;92.60
58469;DHT22;44257;44.804;10.220;2022-09-27T14:02:40;25.60;94.00
58469;DHT22;44257;44.804;10.220;2022-09-27T14:04:47;25.40;94.40
58469;DHT22;44257;44.804;10.220;2022-09-27T14:07:18;25.40;95.20
58469;DHT22;44257;44.804;10.220;2022-09-27T14:09:50;25.30;94.30
58469;DHT22;44257;44.804;10.220;2022-09-27T14:12:36;25.20;95.50
58469;DHT22;44257;44.804;10.220;2022-09-27T14:15:18;25.20;95.30
58469;DHT22;44257;44.804;10.220;2022-09-27T14:17:46;25.10;95.80
58469;DHT22;44257;44.804;10.220;2022-09-27T14:20:49;25.00;95.60
58469;DHT22;44257;44.804;10.220;2022-09-27T14:23:45;24.90;94.70
58469;DHT22;44257;44.804;10.220;2022-09-27T14:26:26;24.80;94.00
58469;DHT22;44257;44.804;10.220;2022-09-27T14:28:52;24.70;94.00
58469;DHT22;44257;44.804;10.220;2022-09-27T14:31:28;24.60;94.00
58469;DHT22;44257;44.804;10.220;2022-09-27T14:34:07;24.60;93.50
58469;DHT22;44257;44.804;10.220;2022-09-27T14:36:35;24.50;93.50
58469;DHT22;44257;44.804;10.220;2022-09-27T14:39:31;24.50;93.70
58469;DHT22;44257;44.804;10.220;2022-09-27T14:42:15;24.50;93.00
58469;DHT22;44257;44.804;10.220;2022-09-27T14:44:44;24.40;93.00
58469;DHT22;44257;44.804;10.220;2022-09-27T14:47:22;24.40;91.90
58469;DHT22;44257;44.804;10.220;2022-09-27T14:49:56;24.50;92.80
58469;DHT22;44257;44.804;10.220;2022-09-27T14:52:30;24.50;92.60
58469;DHT22;44257;44.804;10.220;2022-09-27T14:55:04;24.40;92.70
58469;DHT22;44257;44.804;10.220;2022-09-27T14:57:31;24.30;92.20
58469;DHT22;44257;44.804;10.220;2022-09-27T15:03:03;24.10;92.40
58469;DHT22;44257;44.804;10.220;2022-09-27T15:05:32;24.10;92.20
58469;DHT22;44257;44.804;10.220;2022-09-27T15:08:01;24.00;92.10
58469;DHT22;44257;44.804;10.220;2022-09-27T15:10:29;23.90;92.70
58469;DHT22;44257;44.804;10.220;2022-09-27T15:12:58;23.90;92.70
58469;DHT22;44257;44.804;10.220;2022-09-27T15:15:29;23.90;92.80
58469;DHT22;44257;44.804;10.220;2022-09-27T15:17:57;24.00;92.50
58469;DHT22;44257;44.804;10.220;2022-09-27T15:20:30;24.00;92.60
58469;DHT22;44257;44.804;10.220;2022-09-27T15:22:58;23.90;92.70
58469;DHT22;44257;44.804;10.220;2022-09-27T15:25:42;23.80;92.60
58469;DHT22;44257;44.804;10.220;2022-09-27T15:28:21;23.70;93.00
58469;DHT22;44257;44.804;10.220;2022-09-27T15:30:56;23.60;93.20
58469;DHT22;44257;44.804;10.220;2022-09-27T15:33:31;23.50;93.30
58469;DHT22;44257;44.804;10.220;2022-09-27T15:36:04;23.30;93.40
58469;DHT22;44257;44.804;10.220;2022-09-27T15:38:38;23.20;93.40
58469;DHT22;44257;44.804;10.220;2022-09-27T15:41:15;23.10;93.30
58469;DHT22;44257;44.804;10.220;2022-09-27T15:43:46;23.00;93.90
58469;DHT22;44257;44.804;10.220;2022-09-27T15:46:35;23.00;93.40
58469;DHT22;44257;44.804;10.220;2022-09-27T15:49:18;22.80;93.90
58469;DHT22;44257;44.804;10.220;2022-09-27T15:51:46;22.70;93.90
58469;DHT22;44257;44.804;10.220;2022-09-27T15:54:12;22.50;93.80
58469;DHT22;44257;44.804;10.220;2022-09-27T15:56:41;22.30;94.30
58469;DHT22;44257;44.804;10.220;2022-09-27T15:59:21;22.20;94.50
58469;DHT22;44257;44.804;10.220;2022-09-27T16:01:47;22.10;94.70
58469;DHT22;44257;44.804;10.220;2022-09-27T16:04:14;22.00;94.80
58469;DHT22;44257;44.804;10.220;2022-09-27T16:06:40;21.90;95.10
58469;DHT22;44257;44.804;10.220;2022-09-27T16:09:16;21.70;95.40
58469;DHT22;44257;44.804;10.220;2022-09-27T16:11:45;21.60;95.80
58469;DHT22;44257;44.804;10.220;2022-09-27T16:14:11;21.50;96.00
58469;DHT22;44257;44.804;10.220;2022-09-27T16:16:42;21.40;96.00
58469;DHT22;44257;44.804;10.220;2022-09-27T16:19:09;21.40;96.10
58469;DHT22;44257;44.804;10.220;2022-09-27T16:21:34;21.30;96.20
58469;DHT22;44257;44.804;10.220;2022-09-27T16:24:00;21.20;96.20
58469;DHT22;44257;44.804;10.220;2022-09-27T16:26:28;21.10;96.50
58469;DHT22;44257;44.804;10.220;2022-09-27T16:28:54;21.00;96.30
58469;DHT22;44257;44.804;10.220;2022-09-27T16:31:20;20.90;96.30
58469;DHT22;44257;44.804;10.220;2022-09-27T16:33:49;20.90;96.60
58469;DHT22;44257;44.804;10.220;2022-09-27T16:36:16;20.70;96.50
58469;DHT22;44257;44.804;10.220;2022-09-27T16:38:51;20.70;96.70
58469;DHT22;44257;44.804;10.220;2022-09-27T16:41:18;20.60;96.60
58469;DHT22;44257;44.804;10.220;2022-09-27T16:43:45;20.50;96.90
58469;DHT22;44257;44.804;10.220;2022-09-27T16:46:12;20.50;96.80
58469;DHT22;44257;44.804;10.220;2022-09-27T16:48:41;20.50;96.50
58469;DHT22;44257;44.804;10.220;2022-09-27T16:51:12;20.40;96.90
58469;DHT22;44257;44.804;10.220;2022-09-27T16:53:57;20.40;97.10
58469;DHT22;44257;44.804;10.220;2022-09-27T16:56:23;20.30;97.30
58469;DHT22;44257;44.804;10.220;2022-09-27T16:58:49;20.30;97.20
58469;DHT22;44257;44.804;10.220;2022-09-27T17:01:15;20.20;97.40
58469;DHT22;44257;44.804;10.220;2022-09-27T17:03:42;20.10;97.50
58469;DHT22;44257;44.804;10.220;2022-09-27T17:06:10;20.10;97.80
58469;DHT22;44257;44.804;10.220;2022-09-27T17:08:36;20.00;97.70
58469;DHT22;44257;44.804;10.220;2022-09-27T17:11:02;19.90;97.70
58469;DHT22;44257;44.804;10.220;2022-09-27T17:13:28;19.90;98.20
58469;DHT22;44257;44.804;10.220;2022-09-27T17:15:53;19.80;98.10
58469;DHT22;44257;44.804;10.220;2022-09-27T17:18:19;19.70;98.10
58469;DHT22;44257;44.804;10.220;2022-09-27T17:20:45;19.70;98.30
58469;DHT22;44257;44.804;10.220;2022-09-27T17:23:11;19.60;98.50
58469;DHT22;44257;44.804;10.220;2022-09-27T17:25:37;19.50;98.50
58469;DHT22;44257;44.804;10.220;2022-09-27T17:28:03;19.40;98.60
58469;DHT22;44257;44.804;10.220;2022-09-27T17:30:29;19.30;98.80
58469;DHT22;44257;44.804;10.220;2022-09-27T17:32:56;19.30;99.00
58469;DHT22;44257;44.804;10.220;2022-09-27T17:35:22;19.20;99.00
58469;DHT22;44257;44.804;10.220;2022-09-27T17:37:48;19.20;99.10
58469;DHT22;44257;44.804;10.220;2022-09-27T17:40:15;19.10;99.00
58469;DHT22;44257;44.804;10.220;2022-09-27T17:42:41;19.10;99.30
58469;DHT22;44257;44.804;10.220;2022-09-27T17:45:07;19.10;99.40
58469;DHT22;44257;44.804;10.220;2022-09-27T17:47:33;19.10;99.50
58469;DHT22;44257;44.804;10.220;2022-09-27T17:50:38;19.00;99.70
58469;DHT22;44257;44.804;10.220;2022-09-27T17:53:03;18.90;99.80
58469;DHT22;44257;44.804;10.220;2022-09-27T17:55:29;18.90;99.90
58469;DHT22;44257;44.804;10.220;2022-09-27T17:57:55;18.90;99.90
58469;DHT22;44257;44.804;10.220;2022-09-27T18:00:21;18.80;99.90
58469;DHT22;44257;44.804;10.220;2022-09-27T18:02:47;18.80;99.90
58469;DHT22;44257;44.804;10.220;2022-09-27T18:05:13;18.80;99.90
58469;DHT22;44257;44.804;10.220;2022-09-27T18:07:39;18.80;99.90
58469;DHT22;44257;44.804;10.220;2022-09-27T18:10:05;18.70;99.90
58469;DHT22;44257;44.804;10.220;2022-09-27T18:12:31;18.60;99.90
58469;DHT22;44257;44.804;10.220;2022-09-27T18:14:58;18.60;99.90
58469;DHT22;44257;44.804;10.220;2022-09-27T18:17:23;18.60;99.90
58469;DHT22;44257;44.804;10.220;2022-09-27T18:19:50;18.50;99.90
58469;DHT22;44257;44.804;10.220;2022-09-27T18:22:16;18.50;99.90
58469;DHT22;44257;44.804;10.220;2022-09-27T18:24:41;18.50;99.90
58469;DHT22;44257;44.804;10.220;2022-09-27T18:27:07;18.50;99.90
58469;DHT22;44257;44.804;10.220;2022-09-27T18:29:33;18.50;99.90
58469;DHT22;44257;44.804;10.220;2022-09-27T18:31:59;18.40;99.90